sensor_id;sensor_type;location;lat;lon;timestamp;P1;durP1;ratioP1;P2;durP2;ratioP2
3643;SDS011;1838;50.742;7.158;2023-11-21T00:00:44;7.87;;;4.97;;
3643;SDS011;1838;50.742;7.158;2023-11-21T00:03:10;8.27;;;5.63;;
3643;SDS011;1838;50.742;7.158;2023-11-21T00:05:39;10.63;;;5.80;;
3643;SDS011;1838;50.742;7.158;2023-11-21T00:08:06;9.10;;;6.13;;
3643;SDS011;1838;50.742;7.158;2023-11-21T00:10:32;10.87;;;6.10;;
3643;SDS011;1838;50.742;7.158;2023-11-21T00:12:57;10.13;;;5.80;;
3643;SDS011;1838;50.742;7.158;2023-11-21T00:15:23;10.43;;;6.90;;
3643;SDS011;1838;50.742;7.158;2023-11-21T00:17:48;10.13;;;6.17;;
3643;SDS011;1838;50.742;7.158;2023-11-21T00:20:14;10.00;;;6.83;;
3643;SDS011;1838;50.742;7.158;2023-11-21T00:22:40;8.80;;;6.20;;
3643;SDS011;1838;50.742;7.158;2023-11-21T00:25:06;11.20;;;6.80;;
3643;SDS011;1838;50.742;7.158;2023-11-21T00:27:34;10.97;;;6.60;;
3643;SDS011;1838;50.742;7.158;2023-11-21T00:30:00;11.00;;;6.67;;
3643;SDS011;1838;50.742;7.158;2023-11-21T00:32:26;10.77;;;7.57;;
3643;SDS011;1838;50.742;7.158;2023-11-21T00:34:51;10.27;;;6.87;;
3643;SDS011;1838;50.742;7.158;2023-11-21T00:37:17;13.30;;;7.03;;
3643;SDS011;1838;50.742;7.158;2023-11-21T00:39:42;11.53;;;7.70;;
3643;SDS011;1838;50.742;7.158;2023-11-21T00:42:08;9.67;;;7.50;;
3643;SDS011;1838;50.742;7.158;2023-11-21T00:44:33;11.20;;;7.40;;
3643;SDS011;1838;50.742;7.158;2023-11-21T00:47:02;13.13;;;7.60;;
3643;SDS011;1838;50.742;7.158;2023-11-21T00:49:28;12.50;;;8.50;;
3643;SDS011;1838;50.742;7.158;2023-11-21T00:51:53;11.17;;;6.70;;
3643;SDS011;1838;50.742;7.158;2023-11-21T00:54:19;16.67;;;7.67;;
3643;SDS011;1838;50.742;7.158;2023-11-21T00:56:44;13.53;;;8.00;;
3643;SDS011;1838;50.742;7.158;2023-11-21T00:59:12;15.60;;;8.87;;
3643;SDS011;1838;50.742;7.158;2023-11-21T01:01:37;12.93;;;7.83;;
3643;SDS011;1838;50.742;7.158;2023-11-21T01:04:03;14.83;;;7.60;;
3643;SDS011;1838;50.742;7.158;2023-11-21T01:06:29;10.50;;;7.00;;
3643;SDS011;1838;50.742;7.158;2023-11-21T01:08:55;16.30;;;8.67;;
3643;SDS011;1838;50.742;7.158;2023-11-21T01:11:20;18.60;;;7.87;;
3643;SDS011;1838;50.742;7.158;2023-11-21T01:13:46;13.40;;;8.80;;
3643;SDS011;1838;50.742;7.158;2023-11-21T01:16:11;12.60;;;8.37;;
3643;SDS011;1838;50.742;7.158;2023-11-21T01:18:37;16.53;;;9.70;;
3643;SDS011;1838;50.742;7.158;2023-11-21T01:21:03;13.67;;;8.40;;
3643;SDS011;1838;50.742;7.158;2023-11-21T01:23:29;22.00;;;8.93;;
3643;SDS011;1838;50.742;7.158;2023-11-21T01:25:55;13.40;;;8.87;;
3643;SDS011;1838;50.742;7.158;2023-11-21T01:28:21;12.77;;;8.20;;
3643;SDS011;1838;50.742;7.158;2023-11-21T01:30:47;14.50;;;8.23;;
3643;SDS011;1838;50.742;7.158;2023-11-21T01:33:13;16.37;;;8.93;;
3643;SDS011;1838;50.742;7.158;2023-11-21T01:35:40;13.53;;;8.57;;
3643;SDS011;1838;50.742;7.158;2023-11-21T01:38:06;14.40;;;8.63;;
3643;SDS011;1838;50.742;7.158;2023-11-21T01:40:33;11.67;;;7.37;;
3643;SDS011;1838;50.742;7.158;2023-11-21T01:42:59;22.23;;;10.57;;
3643;SDS011;1838;50.742;7.158;2023-11-21T01:45:25;14.57;;;8.73;;
3643;SDS011;1838;50.742;7.158;2023-11-21T01:47:51;14.23;;;7.53;;
3643;SDS011;1838;50.742;7.158;2023-11-21T01:50:17;23.10;;;8.37;;
3643;SDS011;1838;50.742;7.158;2023-11-21T01:52:43;21.70;;;9.57;;
3643;SDS011;1838;50.742;7.158;2023-11-21T01:55:10;17.00;;;8.20;;
3643;SDS011;1838;50.742;7.158;2023-11-21T01:57:37;21.63;;;10.23;;
3643;SDS011;1838;50.742;7.158;2023-11-21T02:00:03;15.07;;;9.53;;
3643;SDS011;1838;50.742;7.158;2023-11-21T02:02:43;20.63;;;11.43;;
3643;SDS011;1838;50.742;7.158;2023-11-21T02:05:19;31.57;;;12.27;;
3643;SDS011;1838;50.742;7.158;2023-11-21T02:07:46;24.73;;;11.97;;
3643;SDS011;1838;50.742;7.158;2023-11-21T02:10:17;21.40;;;12.03;;
3643;SDS011;1838;50.742;7.158;2023-11-21T02:12:47;25.27;;;13.43;;
3643;SDS011;1838;50.742;7.158;2023-11-21T02:15:15;24.30;;;12.83;;
3643;SDS011;1838;50.742;7.158;2023-11-21T02:17:48;22.33;;;13.33;;
3643;SDS011;1838;50.742;7.158;2023-11-21T02:20:19;19.70;;;11.93;;
3643;SDS011;1838;50.742;7.158;2023-11-21T02:23:03;18.23;;;11.43;;
3643;SDS011;1838;50.742;7.158;2023-11-21T02:25:30;15.80;;;10.70;;
3643;SDS011;1838;50.742;7.158;2023-11-21T02:27:57;18.90;;;11.40;;
3643;SDS011;1838;50.742;7.158;2023-11-21T02:30:25;18.10;;;11.67;;
3643;SDS011;1838;50.742;7.158;2023-11-21T02:32:52;18.30;;;11.50;;
3643;SDS011;1838;50.742;7.158;2023-11-21T02:35:18;18.47;;;11.13;;
3643;SDS011;1838;50.742;7.158;2023-11-21T02:37:48;16.50;;;9.93;;
3643;SDS011;1838;50.742;7.158;2023-11-21T02:40:14;22.10;;;11.43;;
3643;SDS011;1838;50.742;7.158;2023-11-21T02:42:45;19.33;;;10.50;;
3643;SDS011;1838;50.742;7.158;2023-11-21T02:45:12;16.57;;;9.93;;
3643;SDS011;1838;50.742;7.158;2023-11-21T02:47:39;15.83;;;9.70;;
3643;SDS011;1838;50.742;7.158;2023-11-21T02:50:05;14.37;;;10.00;;
3643;SDS011;1838;50.742;7.158;2023-11-21T02:52:33;20.53;;;11.03;;
3643;SDS011;1838;50.742;7.158;2023-11-21T02:54:59;17.70;;;11.20;;
3643;SDS011;1838;50.742;7.158;2023-11-21T02:57:24;22.57;;;10.93;;
3643;SDS011;1838;50.742;7.158;2023-11-21T02:59:50;21.77;;;10.73;;
3643;SDS011;1838;50.742;7.158;2023-11-21T03:02:15;19.40;;;10.10;;
3643;SDS011;1838;50.742;7.158;2023-11-21T03:04:41;20.20;;;11.87;;
3643;SDS011;1838;50.742;7.158;2023-11-21T03:07:07;21.97;;;11.13;;
3643;SDS011;1838;50.742;7.158;2023-11-21T03:09:34;28.00;;;10.17;;
3643;SDS011;1838;50.742;7.158;2023-11-21T03:12:00;22.23;;;10.30;;
3643;SDS011;1838;50.742;7.158;2023-11-21T03:14:25;29.60;;;11.53;;
3643;SDS011;1838;50.742;7.158;2023-11-21T03:16:51;22.57;;;10.70;;
3643;SDS011;1838;50.742;7.158;2023-11-21T03:19:16;22.00;;;11.30;;
3643;SDS011;1838;50.742;7.158;2023-11-21T03:21:42;14.00;;;8.47;;
3643;SDS011;1838;50.742;7.158;2023-11-21T03:24:07;14.33;;;9.53;;
3643;SDS011;1838;50.742;7.158;2023-11-21T03:26:33;19.33;;;9.80;;
3643;SDS011;1838;50.742;7.158;2023-11-21T03:28:59;15.10;;;9.50;;
3643;SDS011;1838;50.742;7.158;2023-11-21T03:31:24;15.00;;;9.27;;
3643;SDS011;1838;50.742;7.158;2023-11-21T03:33:50;21.70;;;9.80;;
3643;SDS011;1838;50.742;7.158;2023-11-21T03:36:15;19.70;;;10.00;;
3643;SDS011;1838;50.742;7.158;2023-11-21T03:38:43;16.93;;;9.27;;
3643;SDS011;1838;50.742;7.158;2023-11-21T03:41:08;20.63;;;10.30;;
3643;SDS011;1838;50.742;7.158;2023-11-21T03:43:37;26.53;;;12.03;;
3643;SDS011;1838;50.742;7.158;2023-11-21T03:46:02;22.77;;;11.23;;
3643;SDS011;1838;50.742;7.158;2023-11-21T03:48:28;15.30;;;10.80;;
3643;SDS011;1838;50.742;7.158;2023-11-21T03:50:54;19.03;;;10.40;;
3643;SDS011;1838;50.742;7.158;2023-11-21T03:53:20;18.50;;;11.03;;
3643;SDS011;1838;50.742;7.158;2023-11-21T03:55:45;25.40;;;13.13;;
3643;SDS011;1838;50.742;7.158;2023-11-21T03:58:11;21.40;;;12.27;;
3643;SDS011;1838;50.742;7.158;2023-11-21T04:00:36;23.03;;;10.70;;
3643;SDS011;1838;50.742;7.158;2023-11-21T04:03:02;25.27;;;11.97;;
3643;SDS011;1838;50.742;7.158;2023-11-21T04:05:28;22.30;;;11.77;;
3643;SDS011;1838;50.742;7.158;2023-11-21T04:07:53;25.43;;;12.33;;
3643;SDS011;1838;50.742;7.158;2023-11-21T04:10:19;20.03;;;11.73;;
3643;SDS011;1838;50.742;7.158;2023-11-21T04:12:44;25.53;;;11.13;;
3643;SDS011;1838;50.742;7.158;2023-11-21T04:15:10;22.50;;;12.27;;
3643;SDS011;1838;50.742;7.158;2023-11-21T04:17:38;23.43;;;11.97;;
3643;SDS011;1838;50.742;7.158;2023-11-21T04:20:04;21.80;;;11.63;;
3643;SDS011;1838;50.742;7.158;2023-11-21T04:22:33;29.73;;;12.03;;
3643;SDS011;1838;50.742;7.158;2023-11-21T04:25:01;28.73;;;12.90;;
3643;SDS011;1838;50.742;7.158;2023-11-21T04:27:27;19.27;;;11.33;;
3643;SDS011;1838;50.742;7.158;2023-11-21T04:29:52;27.80;;;10.63;;
3643;SDS011;1838;50.742;7.158;2023-11-21T04:32:18;27.43;;;13.00;;
3643;SDS011;1838;50.742;7.158;2023-11-21T04:34:43;18.37;;;11.17;;
3643;SDS011;1838;50.742;7.158;2023-11-21T04:37:09;16.47;;;10.77;;
3643;SDS011;1838;50.742;7.158;2023-11-21T04:39:35;20.10;;;11.50;;
3643;SDS011;1838;50.742;7.158;2023-11-21T04:42:01;24.03;;;13.07;;
3643;SDS011;1838;50.742;7.158;2023-11-21T04:44:27;29.60;;;11.07;;
3643;SDS011;1838;50.742;7.158;2023-11-21T04:46:52;19.17;;;10.73;;
3643;SDS011;1838;50.742;7.158;2023-11-21T04:49:18;21.20;;;10.00;;
3643;SDS011;1838;50.742;7.158;2023-11-21T04:51:43;24.70;;;12.80;;
3643;SDS011;1838;50.742;7.158;2023-11-21T04:54:09;25.73;;;11.70;;
3643;SDS011;1838;50.742;7.158;2023-11-21T04:56:35;18.20;;;10.90;;
3643;SDS011;1838;50.742;7.158;2023-11-21T04:59:00;18.90;;;11.37;;
3643;SDS011;1838;50.742;7.158;2023-11-21T05:01:26;27.43;;;13.03;;
3643;SDS011;1838;50.742;7.158;2023-11-21T05:03:52;25.40;;;12.17;;
3643;SDS011;1838;50.742;7.158;2023-11-21T05:06:17;20.90;;;12.03;;
3643;SDS011;1838;50.742;7.158;2023-11-21T05:08:43;25.10;;;14.10;;
3643;SDS011;1838;50.742;7.158;2023-11-21T05:11:08;32.83;;;17.07;;
3643;SDS011;1838;50.742;7.158;2023-11-21T05:13:35;28.80;;;14.97;;
3643;SDS011;1838;50.742;7.158;2023-11-21T05:16:01;27.47;;;14.93;;
3643;SDS011;1838;50.742;7.158;2023-11-21T05:18:29;33.33;;;17.67;;
3643;SDS011;1838;50.742;7.158;2023-11-21T05:20:55;29.70;;;15.70;;
3643;SDS011;1838;50.742;7.158;2023-11-21T05:23:20;29.20;;;15.27;;
3643;SDS011;1838;50.742;7.158;2023-11-21T05:25:46;27.20;;;15.03;;
3643;SDS011;1838;50.742;7.158;2023-11-21T05:28:12;26.47;;;15.57;;
3643;SDS011;1838;50.742;7.158;2023-11-21T05:30:37;25.00;;;13.93;;
3643;SDS011;1838;50.742;7.158;2023-11-21T05:33:06;26.83;;;15.47;;
3643;SDS011;1838;50.742;7.158;2023-11-21T05:35:31;40.33;;;17.33;;
3643;SDS011;1838;50.742;7.158;2023-11-21T05:37:57;24.73;;;14.50;;
3643;SDS011;1838;50.742;7.158;2023-11-21T05:40:22;24.23;;;13.27;;
3643;SDS011;1838;50.742;7.158;2023-11-21T05:42:48;26.60;;;14.10;;
3643;SDS011;1838;50.742;7.158;2023-11-21T05:45:14;21.47;;;14.10;;
3643;SDS011;1838;50.742;7.158;2023-11-21T05:47:43;29.17;;;15.87;;
3643;SDS011;1838;50.742;7.158;2023-11-21T05:50:11;31.30;;;18.27;;
3643;SDS011;1838;50.742;7.158;2023-11-21T05:52:40;30.97;;;18.50;;
3643;SDS011;1838;50.742;7.158;2023-11-21T05:55:06;36.33;;;18.93;;
3643;SDS011;1838;50.742;7.158;2023-11-21T05:57:36;38.20;;;19.40;;
3643;SDS011;1838;50.742;7.158;2023-11-21T06:00:03;39.57;;;18.07;;
3643;SDS011;1838;50.742;7.158;2023-11-21T06:02:36;46.13;;;18.60;;
3643;SDS011;1838;50.742;7.158;2023-11-21T06:05:03;44.50;;;19.80;;
3643;SDS011;1838;50.742;7.158;2023-11-21T06:07:29;38.83;;;19.03;;
3643;SDS011;1838;50.742;7.158;2023-11-21T06:09:54;46.00;;;17.93;;
3643;SDS011;1838;50.742;7.158;2023-11-21T06:12:20;41.87;;;16.87;;
3643;SDS011;1838;50.742;7.158;2023-11-21T06:14:45;34.90;;;17.47;;
3643;SDS011;1838;50.742;7.158;2023-11-21T06:17:11;32.93;;;15.50;;
3643;SDS011;1838;50.742;7.158;2023-11-21T06:19:36;38.83;;;16.87;;
3643;SDS011;1838;50.742;7.158;2023-11-21T06:22:02;27.90;;;15.50;;
3643;SDS011;1838;50.742;7.158;2023-11-21T06:24:28;33.13;;;17.03;;
3643;SDS011;1838;50.742;7.158;2023-11-21T06:26:53;33.07;;;17.47;;
3643;SDS011;1838;50.742;7.158;2023-11-21T06:29:18;39.57;;;17.80;;
3643;SDS011;1838;50.742;7.158;2023-11-21T06:31:44;30.27;;;15.97;;
3643;SDS011;1838;50.742;7.158;2023-11-21T06:34:11;28.23;;;14.47;;
3643;SDS011;1838;50.742;7.158;2023-11-21T06:36:37;36.13;;;15.30;;
3643;SDS011;1838;50.742;7.158;2023-11-21T06:39:02;30.63;;;14.70;;
3643;SDS011;1838;50.742;7.158;2023-11-21T06:41:33;40.30;;;17.80;;
3643;SDS011;1838;50.742;7.158;2023-11-21T06:43:59;31.53;;;16.80;;
3643;SDS011;1838;50.742;7.158;2023-11-21T06:46:25;34.53;;;17.30;;
3643;SDS011;1838;50.742;7.158;2023-11-21T06:48:50;30.90;;;17.67;;
3643;SDS011;1838;50.742;7.158;2023-11-21T06:51:16;31.70;;;17.00;;
3643;SDS011;1838;50.742;7.158;2023-11-21T06:53:41;36.97;;;18.00;;
3643;SDS011;1838;50.742;7.158;2023-11-21T06:56:17;35.27;;;17.53;;
3643;SDS011;1838;50.742;7.158;2023-11-21T06:58:44;32.03;;;17.23;;
3643;SDS011;1838;50.742;7.158;2023-11-21T07:01:11;34.87;;;17.13;;
3643;SDS011;1838;50.742;7.158;2023-11-21T07:03:37;39.60;;;20.53;;
3643;SDS011;1838;50.742;7.158;2023-11-21T07:06:03;41.70;;;20.47;;
3643;SDS011;1838;50.742;7.158;2023-11-21T07:08:29;53.93;;;20.20;;
3643;SDS011;1838;50.742;7.158;2023-11-21T07:10:54;40.07;;;21.00;;
3643;SDS011;1838;50.742;7.158;2023-11-21T07:13:20;43.97;;;21.00;;
3643;SDS011;1838;50.742;7.158;2023-11-21T07:15:46;41.47;;;19.23;;
3643;SDS011;1838;50.742;7.158;2023-11-21T07:18:13;44.53;;;20.17;;
3643;SDS011;1838;50.742;7.158;2023-11-21T07:20:38;44.43;;;18.27;;
3643;SDS011;1838;50.742;7.158;2023-11-21T07:23:04;43.93;;;18.77;;
3643;SDS011;1838;50.742;7.158;2023-11-21T07:25:30;39.07;;;18.07;;
3643;SDS011;1838;50.742;7.158;2023-11-21T07:27:56;53.30;;;22.97;;
3643;SDS011;1838;50.742;7.158;2023-11-21T07:30:22;44.40;;;21.03;;
3643;SDS011;1838;50.742;7.158;2023-11-21T07:32:48;49.60;;;20.10;;
3643;SDS011;1838;50.742;7.158;2023-11-21T07:35:14;49.53;;;22.93;;
3643;SDS011;1838;50.742;7.158;2023-11-21T07:37:39;40.90;;;18.83;;
3643;SDS011;1838;50.742;7.158;2023-11-21T07:40:05;39.23;;;18.53;;
3643;SDS011;1838;50.742;7.158;2023-11-21T07:42:33;45.60;;;18.80;;
3643;SDS011;1838;50.742;7.158;2023-11-21T07:44:59;36.47;;;17.70;;
3643;SDS011;1838;50.742;7.158;2023-11-21T07:47:24;38.27;;;18.90;;
3643;SDS011;1838;50.742;7.158;2023-11-21T07:49:52;41.23;;;17.80;;
3643;SDS011;1838;50.742;7.158;2023-11-21T07:52:18;43.60;;;18.23;;
3643;SDS011;1838;50.742;7.158;2023-11-21T07:54:46;37.67;;;17.50;;
3643;SDS011;1838;50.742;7.158;2023-11-21T07:57:11;35.20;;;17.00;;
3643;SDS011;1838;50.742;7.158;2023-11-21T07:59:38;36.03;;;17.80;;
3643;SDS011;1838;50.742;7.158;2023-11-21T08:02:06;39.37;;;19.37;;
3643;SDS011;1838;50.742;7.158;2023-11-21T08:04:32;43.73;;;19.27;;
3643;SDS011;1838;50.742;7.158;2023-11-21T08:06:59;40.07;;;17.90;;
3643;SDS011;1838;50.742;7.158;2023-11-21T08:09:24;44.03;;;18.87;;
3643;SDS011;1838;50.742;7.158;2023-11-21T08:11:50;39.00;;;17.70;;
3643;SDS011;1838;50.742;7.158;2023-11-21T08:14:18;40.00;;;19.90;;
3643;SDS011;1838;50.742;7.158;2023-11-21T08:16:43;45.53;;;20.33;;
3643;SDS011;1838;50.742;7.158;2023-11-21T08:19:09;40.30;;;19.13;;
3643;SDS011;1838;50.742;7.158;2023-11-21T08:21:36;49.43;;;19.30;;
3643;SDS011;1838;50.742;7.158;2023-11-21T08:24:02;55.33;;;18.60;;
3643;SDS011;1838;50.742;7.158;2023-11-21T08:26:29;46.97;;;21.20;;
3643;SDS011;1838;50.742;7.158;2023-11-21T08:28:55;51.17;;;21.40;;
3643;SDS011;1838;50.742;7.158;2023-11-21T08:31:25;59.00;;;23.17;;
3643;SDS011;1838;50.742;7.158;2023-11-21T08:33:51;47.10;;;19.97;;
3643;SDS011;1838;50.742;7.158;2023-11-21T08:36:16;44.47;;;20.17;;
3643;SDS011;1838;50.742;7.158;2023-11-21T08:38:42;39.50;;;18.90;;
3643;SDS011;1838;50.742;7.158;2023-11-21T08:41:07;42.47;;;19.90;;
3643;SDS011;1838;50.742;7.158;2023-11-21T08:43:34;49.40;;;19.23;;
3643;SDS011;1838;50.742;7.158;2023-11-21T08:46:00;40.23;;;18.70;;
3643;SDS011;1838;50.742;7.158;2023-11-21T08:48:26;45.87;;;19.40;;
3643;SDS011;1838;50.742;7.158;2023-11-21T08:50:53;47.17;;;20.63;;
3643;SDS011;1838;50.742;7.158;2023-11-21T08:53:19;52.37;;;20.20;;
3643;SDS011;1838;50.742;7.158;2023-11-21T08:55:44;41.17;;;19.57;;
3643;SDS011;1838;50.742;7.158;2023-11-21T08:58:10;45.70;;;19.90;;
3643;SDS011;1838;50.742;7.158;2023-11-21T09:00:37;38.57;;;19.47;;
3643;SDS011;1838;50.742;7.158;2023-11-21T09:03:04;41.63;;;19.00;;
3643;SDS011;1838;50.742;7.158;2023-11-21T09:05:33;41.57;;;19.67;;
3643;SDS011;1838;50.742;7.158;2023-11-21T09:07:59;43.17;;;19.97;;
3643;SDS011;1838;50.742;7.158;2023-11-21T09:10:24;44.50;;;18.90;;
3643;SDS011;1838;50.742;7.158;2023-11-21T09:12:50;53.10;;;21.33;;
3643;SDS011;1838;50.742;7.158;2023-11-21T09:15:16;47.43;;;20.17;;
3643;SDS011;1838;50.742;7.158;2023-11-21T09:17:42;40.53;;;19.93;;
3643;SDS011;1838;50.742;7.158;2023-11-21T09:20:09;44.40;;;19.80;;
3643;SDS011;1838;50.742;7.158;2023-11-21T09:22:35;39.67;;;16.93;;
3643;SDS011;1838;50.742;7.158;2023-11-21T09:25:01;46.53;;;19.83;;
3643;SDS011;1838;50.742;7.158;2023-11-21T09:27:30;56.90;;;20.10;;
3643;SDS011;1838;50.742;7.158;2023-11-21T09:29:56;44.50;;;18.50;;
3643;SDS011;1838;50.742;7.158;2023-11-21T09:32:23;39.50;;;18.57;;
3643;SDS011;1838;50.742;7.158;2023-11-21T09:34:49;44.40;;;19.43;;
3643;SDS011;1838;50.742;7.158;2023-11-21T09:37:15;33.83;;;18.37;;
3643;SDS011;1838;50.742;7.158;2023-11-21T09:39:41;40.60;;;18.47;;
3643;SDS011;1838;50.742;7.158;2023-11-21T09:42:28;38.47;;;18.57;;
3643;SDS011;1838;50.742;7.158;2023-11-21T09:47:42;40.00;;;18.80;;
3643;SDS011;1838;50.742;7.158;2023-11-21T09:50:08;40.20;;;19.37;;
3643;SDS011;1838;50.742;7.158;2023-11-21T09:52:48;42.97;;;19.50;;
3643;SDS011;1838;50.742;7.158;2023-11-21T09:55:15;53.13;;;21.43;;
3643;SDS011;1838;50.742;7.158;2023-11-21T09:57:43;51.17;;;20.70;;
3643;SDS011;1838;50.742;7.158;2023-11-21T10:00:10;46.23;;;19.33;;
3643;SDS011;1838;50.742;7.158;2023-11-21T10:02:37;51.93;;;21.83;;
3643;SDS011;1838;50.742;7.158;2023-11-21T10:05:05;44.23;;;19.50;;
3643;SDS011;1838;50.742;7.158;2023-11-21T10:07:31;43.20;;;20.37;;
3643;SDS011;1838;50.742;7.158;2023-11-21T10:09:59;48.43;;;20.13;;
3643;SDS011;1838;50.742;7.158;2023-11-21T10:12:26;60.83;;;23.23;;
3643;SDS011;1838;50.742;7.158;2023-11-21T10:14:54;41.72;;;20.95;;
3643;SDS011;1838;50.742;7.158;2023-11-21T10:17:22;42.57;;;20.97;;
3643;SDS011;1838;50.742;7.158;2023-11-21T10:19:51;51.23;;;23.43;;
3643;SDS011;1838;50.742;7.158;2023-11-21T10:22:18;47.67;;;23.50;;
3643;SDS011;1838;50.742;7.158;2023-11-21T10:24:45;58.13;;;22.80;;
3643;SDS011;1838;50.742;7.158;2023-11-21T10:27:11;50.50;;;23.57;;
3643;SDS011;1838;50.742;7.158;2023-11-21T10:29:38;39.20;;;20.80;;
3643;SDS011;1838;50.742;7.158;2023-11-21T10:32:04;53.17;;;22.77;;
3643;SDS011;1838;50.742;7.158;2023-11-21T10:34:30;50.73;;;23.53;;
3643;SDS011;1838;50.742;7.158;2023-11-21T10:36:56;48.93;;;24.20;;
3643;SDS011;1838;50.742;7.158;2023-11-21T10:39:23;52.17;;;23.53;;
3643;SDS011;1838;50.742;7.158;2023-11-21T10:41:52;59.53;;;23.40;;
3643;SDS011;1838;50.742;7.158;2023-11-21T10:44:19;55.63;;;23.77;;
3643;SDS011;1838;50.742;7.158;2023-11-21T10:46:52;50.03;;;24.00;;
3643;SDS011;1838;50.742;7.158;2023-11-21T10:49:21;61.37;;;25.10;;
3643;SDS011;1838;50.742;7.158;2023-11-21T10:51:49;51.83;;;21.40;;
3643;SDS011;1838;50.742;7.158;2023-11-21T10:54:19;57.17;;;22.47;;
3643;SDS011;1838;50.742;7.158;2023-11-21T10:56:46;58.63;;;24.40;;
3643;SDS011;1838;50.742;7.158;2023-11-21T10:59:16;49.70;;;23.20;;
3643;SDS011;1838;50.742;7.158;2023-11-21T11:01:44;52.30;;;24.17;;
3643;SDS011;1838;50.742;7.158;2023-11-21T11:04:10;50.47;;;22.93;;
3643;SDS011;1838;50.742;7.158;2023-11-21T11:06:44;60.07;;;23.67;;
3643;SDS011;1838;50.742;7.158;2023-11-21T11:09:16;65.43;;;22.57;;
3643;SDS011;1838;50.742;7.158;2023-11-21T11:11:42;61.13;;;23.93;;
3643;SDS011;1838;50.742;7.158;2023-11-21T11:14:12;51.87;;;22.80;;
3643;SDS011;1838;50.742;7.158;2023-11-21T11:16:39;53.57;;;22.77;;
3643;SDS011;1838;50.742;7.158;2023-11-21T11:19:08;42.50;;;21.27;;
3643;SDS011;1838;50.742;7.158;2023-11-21T11:24:28;70.70;;;24.87;;
3643;SDS011;1838;50.742;7.158;2023-11-21T11:30:26;47.77;;;21.80;;
3643;SDS011;1838;50.742;7.158;2023-11-21T11:36:21;44.40;;;20.93;;
3643;SDS011;1838;50.742;7.158;2023-11-21T11:38:53;54.20;;;21.07;;
3643;SDS011;1838;50.742;7.158;2023-11-21T11:41:27;43.23;;;19.87;;
3643;SDS011;1838;50.742;7.158;2023-11-21T11:43:57;44.50;;;20.07;;
3643;SDS011;1838;50.742;7.158;2023-11-21T11:46:43;50.77;;;21.50;;
3643;SDS011;1838;50.742;7.158;2023-11-21T11:49:18;43.50;;;21.57;;
3643;SDS011;1838;50.742;7.158;2023-11-21T11:55:00;61.70;;;23.87;;
3643;SDS011;1838;50.742;7.158;2023-11-21T11:57:29;46.83;;;21.57;;
3643;SDS011;1838;50.742;7.158;2023-11-21T12:02:41;60.50;;;22.77;;
3643;SDS011;1838;50.742;7.158;2023-11-21T12:05:10;47.13;;;21.80;;
3643;SDS011;1838;50.742;7.158;2023-11-21T12:07:53;54.70;;;22.30;;
3643;SDS011;1838;50.742;7.158;2023-11-21T12:10:22;47.37;;;22.90;;
3643;SDS011;1838;50.742;7.158;2023-11-21T12:12:54;47.63;;;21.10;;
3643;SDS011;1838;50.742;7.158;2023-11-21T12:15:21;54.03;;;19.50;;
3643;SDS011;1838;50.742;7.158;2023-11-21T12:17:47;47.37;;;19.93;;
3643;SDS011;1838;50.742;7.158;2023-11-21T12:20:14;46.57;;;22.23;;
3643;SDS011;1838;50.742;7.158;2023-11-21T12:22:45;49.27;;;20.23;;
3643;SDS011;1838;50.742;7.158;2023-11-21T12:25:15;53.27;;;22.07;;
3643;SDS011;1838;50.742;7.158;2023-11-21T12:27:44;47.40;;;22.10;;
3643;SDS011;1838;50.742;7.158;2023-11-21T12:30:14;57.13;;;22.30;;
3643;SDS011;1838;50.742;7.158;2023-11-21T12:32:40;52.53;;;23.67;;
3643;SDS011;1838;50.742;7.158;2023-11-21T12:35:07;47.20;;;20.83;;
3643;SDS011;1838;50.742;7.158;2023-11-21T12:37:37;52.97;;;22.27;;
3643;SDS011;1838;50.742;7.158;2023-11-21T12:40:04;58.00;;;23.70;;
3643;SDS011;1838;50.742;7.158;2023-11-21T12:42:32;59.40;;;22.07;;
3643;SDS011;1838;50.742;7.158;2023-11-21T12:47:46;48.83;;;20.90;;
3643;SDS011;1838;50.742;7.158;2023-11-21T12:50:14;43.17;;;22.13;;
3643;SDS011;1838;50.742;7.158;2023-11-21T12:52:50;54.83;;;23.43;;
3643;SDS011;1838;50.742;7.158;2023-11-21T12:55:20;41.37;;;20.93;;
3643;SDS011;1838;50.742;7.158;2023-11-21T12:57:50;47.77;;;20.90;;
3643;SDS011;1838;50.742;7.158;2023-11-21T13:00:20;47.57;;;22.93;;
3643;SDS011;1838;50.742;7.158;2023-11-21T13:03:02;47.00;;;22.10;;
3643;SDS011;1838;50.742;7.158;2023-11-21T13:05:30;53.60;;;22.97;;
3643;SDS011;1838;50.742;7.158;2023-11-21T13:08:04;50.13;;;22.70;;
3643;SDS011;1838;50.742;7.158;2023-11-21T13:10:33;55.87;;;22.57;;
3643;SDS011;1838;50.742;7.158;2023-11-21T13:13:01;53.13;;;23.60;;
3643;SDS011;1838;50.742;7.158;2023-11-21T13:15:30;44.33;;;21.20;;
3643;SDS011;1838;50.742;7.158;2023-11-21T13:17:56;59.90;;;22.57;;
3643;SDS011;1838;50.742;7.158;2023-11-21T13:20:22;50.50;;;21.80;;
3643;SDS011;1838;50.742;7.158;2023-11-21T13:22:50;57.30;;;23.47;;
3643;SDS011;1838;50.742;7.158;2023-11-21T13:25:20;57.73;;;24.73;;
3643;SDS011;1838;50.742;7.158;2023-11-21T13:27:46;50.47;;;22.50;;
3643;SDS011;1838;50.742;7.158;2023-11-21T13:30:13;61.30;;;25.60;;
3643;SDS011;1838;50.742;7.158;2023-11-21T13:32:45;55.50;;;24.37;;
3643;SDS011;1838;50.742;7.158;2023-11-21T13:35:12;63.67;;;23.63;;
3643;SDS011;1838;50.742;7.158;2023-11-21T13:37:46;50.77;;;22.00;;
3643;SDS011;1838;50.742;7.158;2023-11-21T13:40:15;56.07;;;23.27;;
3643;SDS011;1838;50.742;7.158;2023-11-21T13:42:45;51.50;;;22.37;;
3643;SDS011;1838;50.742;7.158;2023-11-21T13:45:11;53.83;;;21.83;;
3643;SDS011;1838;50.742;7.158;2023-11-21T13:47:37;50.03;;;21.17;;
3643;SDS011;1838;50.742;7.158;2023-11-21T13:50:05;52.53;;;23.83;;
3643;SDS011;1838;50.742;7.158;2023-11-21T13:52:39;46.20;;;20.70;;
3643;SDS011;1838;50.742;7.158;2023-11-21T13:55:04;60.90;;;23.20;;
3643;SDS011;1838;50.742;7.158;2023-11-21T13:57:32;45.60;;;20.40;;
3643;SDS011;1838;50.742;7.158;2023-11-21T13:59:58;49.77;;;19.50;;
3643;SDS011;1838;50.742;7.158;2023-11-21T14:02:24;45.47;;;18.93;;
3643;SDS011;1838;50.742;7.158;2023-11-21T14:04:57;39.30;;;19.10;;
3643;SDS011;1838;50.742;7.158;2023-11-21T14:07:25;42.00;;;18.27;;
3643;SDS011;1838;50.742;7.158;2023-11-21T14:09:59;44.30;;;18.37;;
3643;SDS011;1838;50.742;7.158;2023-11-21T14:12:25;39.73;;;16.97;;
3643;SDS011;1838;50.742;7.158;2023-11-21T14:14:51;41.03;;;18.57;;
3643;SDS011;1838;50.742;7.158;2023-11-21T14:17:16;41.60;;;19.13;;
3643;SDS011;1838;50.742;7.158;2023-11-21T14:19:42;33.67;;;18.53;;
3643;SDS011;1838;50.742;7.158;2023-11-21T14:22:26;44.26;;;17.96;;
3643;SDS011;1838;50.742;7.158;2023-11-21T14:24:52;48.17;;;19.20;;
3643;SDS011;1838;50.742;7.158;2023-11-21T14:27:17;42.57;;;20.33;;
3643;SDS011;1838;50.742;7.158;2023-11-21T14:29:42;42.20;;;19.50;;
3643;SDS011;1838;50.742;7.158;2023-11-21T14:32:09;49.37;;;19.40;;
3643;SDS011;1838;50.742;7.158;2023-11-21T14:34:35;42.60;;;19.97;;
3643;SDS011;1838;50.742;7.158;2023-11-21T14:37:01;38.50;;;19.67;;
3643;SDS011;1838;50.742;7.158;2023-11-21T14:39:29;53.87;;;21.10;;
3643;SDS011;1838;50.742;7.158;2023-11-21T14:41:55;42.53;;;18.07;;
3643;SDS011;1838;50.742;7.158;2023-11-21T14:44:22;52.70;;;21.10;;
3643;SDS011;1838;50.742;7.158;2023-11-21T14:46:51;53.23;;;20.63;;
3643;SDS011;1838;50.742;7.158;2023-11-21T14:49:18;39.93;;;18.53;;
3643;SDS011;1838;50.742;7.158;2023-11-21T14:51:46;41.13;;;18.67;;
3643;SDS011;1838;50.742;7.158;2023-11-21T14:54:28;43.10;;;19.60;;
3643;SDS011;1838;50.742;7.158;2023-11-21T14:57:11;48.80;;;19.70;;
3643;SDS011;1838;50.742;7.158;2023-11-21T14:59:47;47.53;;;18.57;;
3643;SDS011;1838;50.742;7.158;2023-11-21T15:02:16;48.60;;;19.40;;
3643;SDS011;1838;50.742;7.158;2023-11-21T15:04:47;42.70;;;19.50;;
3643;SDS011;1838;50.742;7.158;2023-11-21T15:07:13;46.60;;;19.07;;
3643;SDS011;1838;50.742;7.158;2023-11-21T15:09:39;47.03;;;18.80;;
3643;SDS011;1838;50.742;7.158;2023-11-21T15:12:09;43.83;;;19.13;;